Time;durP1;ratioP1;P1;durP2;ratioP2;P2;SDS_P1;SDS_P2;PMS_P1;PMS_P2;Temp;Humidity;BMP_temperature;BMP_pressure;BME280_temperature;BME280_humidity;BME280_pressure;Samples;Min_cycle;Max_cycle;Signal;HPM_P1;HPM_P2
2021/01/30 00:01:47;;;;;;;1.30;0.60;;;;;;;7.83;88.05;96284.53;5022914;28;20238;-82
2021/01/30 00:04:14;;;;;;;1.03;0.87;;;;;;;7.87;88.38;96283.41;5026268;28;20219;-82
2021/01/30 00:06:47;;;;;;;2.17;1.20;;;;;;;7.90;87.82;96279.78;5024810;28;20254;-84
2021/01/30 00:09:14;;;;;;;2.07;0.97;;;;;;;7.89;88.11;96281.56;5028424;28;20683;-83
2021/01/30 00:11:40;;;;;;;1.90;0.80;;;;;;;7.95;87.80;96284.75;5025002;28;20241;-82
2021/01/30 00:14:07;;;;;;;1.13;0.70;;;;;;;7.89;88.13;96280.75;5026051;28;20215;-82
2021/01/30 00:16:33;;;;;;;2.13;0.90;;;;;;;7.90;87.90;96285.84;5025540;28;20250;-84
2021/01/30 00:18:59;;;;;;;1.53;0.70;;;;;;;7.88;88.17;96273.84;5024507;28;20857;-82
2021/01/30 00:21:25;;;;;;;2.70;0.70;;;;;;;7.73;88.86;96281.59;5023002;28;20467;-83
2021/01/30 00:23:53;;;;;;;1.93;0.70;;;;;;;7.73;88.25;96281.59;5025439;28;20691;-81
2021/01/30 00:26:20;;;;;;;0.80;0.60;;;;;;;7.85;87.81;96295.66;5022994;28;20246;-83
2021/01/30 00:28:46;;;;;;;2.40;0.50;;;;;;;7.88;87.04;96282.50;5025433;28;20219;-83
2021/01/30 00:31:12;;;;;;;0.33;0.20;;;;;;;7.56;89.64;96293.88;5024369;28;20238;-82
2021/01/30 00:33:38;;;;;;;2.27;0.90;;;;;;;7.82;88.23;96295.81;5022575;28;20867;-82
2021/01/30 00:36:05;;;;;;;0.87;0.37;;;;;;;7.72;87.88;96295.50;5024097;28;20287;-82
2021/01/30 00:38:31;;;;;;;1.83;0.53;;;;;;;7.55;88.06;96302.56;5025504;28;20699;-82
2021/01/30 00:40:58;;;;;;;1.63;0.63;;;;;;;7.68;87.66;96298.34;5023778;28;20238;-83
2021/01/30 00:43:25;;;;;;;2.17;0.60;;;;;;;7.79;87.50;96293.38;5009530;28;20225;-84
2021/01/30 00:45:51;;;;;;;1.13;0.50;;;;;;;7.70;87.28;96292.19;5023773;28;20513;-84
2021/01/30 00:48:17;;;;;;;1.23;0.53;;;;;;;7.84;86.85;96291.38;5021596;28;20635;-84
2021/01/30 00:50:44;;;;;;;1.70;0.30;;;;;;;7.68;86.77;96293.16;5022990;28;20349;-82
2021/01/30 00:53:10;;;;;;;1.93;0.60;;;;;;;7.79;86.30;96289.97;5024756;28;21067;-84
2021/01/30 00:55:36;;;;;;;1.40;0.60;;;;;;;7.83;85.52;96281.94;5026529;28;20255;-82
2021/01/30 00:58:03;;;;;;;1.13;0.53;;;;;;;7.60;85.91;96279.81;5024471;28;20218;-82
2021/01/30 01:00:30;;;;;;;1.73;0.80;;;;;;;7.65;84.93;96288.16;5023449;28;20248;-82
2021/01/30 01:02:57;;;;;;;1.37;0.60;;;;;;;7.59;85.53;96275.53;5026619;28;20239;-81
2021/01/30 01:05:24;;;;;;;1.97;0.73;;;;;;;7.50;85.88;96288.09;5024823;28;20249;-82
2021/01/30 01:07:50;;;;;;;1.63;0.80;;;;;;;7.52;85.67;96298.41;5026150;28;20866;-83
2021/01/30 01:10:21;;;;;;;2.23;1.00;;;;;;;7.42;85.92;96295.47;5025416;28;20249;-84
2021/01/30 01:12:47;;;;;;;1.67;0.47;;;;;;;7.40;86.09;96299.91;5025632;28;20232;-84
2021/01/30 01:15:14;;;;;;;0.80;0.50;;;;;;;7.44;85.32;96303.16;5024817;28;20239;-83
2021/01/30 01:17:41;;;;;;;1.53;0.70;;;;;;;7.51;85.32;96305.31;5025610;28;20230;-82
2021/01/30 01:20:11;;;;;;;1.00;0.60;;;;;;;7.57;84.88;96308.50;5023659;28;20225;-83
2021/01/30 01:22:37;;;;;;;1.43;0.57;;;;;;;7.51;84.76;96325.25;5028665;28;20930;-81
2021/01/30 01:25:04;;;;;;;2.63;2.20;;;;;;;7.65;84.27;96303.75;5024511;28;20242;-82
2021/01/30 01:27:30;;;;;;;1.43;0.70;;;;;;;7.56;84.11;96304.25;5023140;28;20303;-83
2021/01/30 01:29:56;;;;;;;2.27;0.87;;;;;;;7.63;83.94;96308.19;5024738;28;20207;-81
2021/01/30 01:32:24;;;;;;;0.97;0.50;;;;;;;7.55;83.68;96312.94;5025066;28;20233;-82
2021/01/30 01:34:51;;;;;;;0.70;0.40;;;;;;;7.28;83.03;96311.81;5025239;28;20235;-84
2021/01/30 01:37:17;;;;;;;1.43;0.63;;;;;;;7.52;82.55;96304.41;5022171;28;20239;-84
2021/01/30 01:39:43;;;;;;;1.77;0.70;;;;;;;7.65;82.71;96299.38;5025166;28;20218;-82
2021/01/30 01:42:13;;;;;;;3.63;0.83;;;;;;;7.69;81.87;96300.03;5024753;28;20288;-82
2021/01/30 01:44:40;;;;;;;1.10;0.60;;;;;;;7.67;81.62;96307.91;5027825;28;20253;-83
2021/01/30 01:47:09;;;;;;;2.17;0.37;;;;;;;7.58;80.22;96313.63;5021858;28;20246;-82
2021/01/30 01:49:38;;;;;;;2.30;0.70;;;;;;;7.66;79.90;96300.19;5025088;28;20597;-83
2021/01/30 01:52:10;;;;;;;0.27;0.27;;;;;;;7.34;79.59;96302.84;5023592;28;20241;-83
2021/01/30 01:54:39;;;;;;;1.27;0.63;;;;;;;7.69;79.28;96284.47;5027221;28;20276;-82
2021/01/30 01:57:09;;;;;;;1.10;0.50;;;;;;;7.44;78.09;96305.75;5024522;28;20226;-83
2021/01/30 01:59:40;;;;;;;1.00;0.60;;;;;;;7.76;78.11;96301.38;5027557;28;20228;-82
2021/01/30 02:02:07;;;;;;;1.33;0.60;;;;;;;7.47;76.80;96306.44;5024183;28;20289;-82
2021/01/30 02:04:34;;;;;;;1.13;0.57;;;;;;;7.76;76.90;96306.56;5023555;28;20221;-81
2021/01/30 02:07:00;;;;;;;0.50;0.50;;;;;;;7.81;76.82;96314.94;5022568;28;20246;-81
2021/01/30 02:09:27;;;;;;;0.80;0.30;;;;;;;7.71;76.01;96313.75;5023291;28;20691;-82
2021/01/30 02:11:59;;;;;;;1.87;0.77;;;;;;;7.92;75.59;96290.91;5021230;28;20235;-83
2021/01/30 02:14:26;;;;;;;2.07;0.60;;;;;;;7.88;75.93;96305.88;5025958;28;20243;-83
2021/01/30 02:16:55;;;;;;;1.30;0.53;;;;;;;7.79;75.91;96308.97;5022712;28;20722;-83
2021/01/30 02:19:43;;;;;;;1.57;0.63;;;;;;;7.90;75.76;96303.16;5021498;28;20221;-81
2021/01/30 02:22:31;;;;;;;0.73;0.60;;;;;;;7.82;75.25;96313.16;5023499;28;20996;-81
2021/01/30 02:25:20;;;;;;;0.77;0.60;;;;;;;7.76;76.36;96313.50;5015025;28;20238;-83
2021/01/30 02:27:59;;;;;;;1.00;0.60;;;;;;;7.44;76.91;96306.59;5024848;28;20247;-82
2021/01/30 02:31:01;;;;;;;3.00;0.90;;;;;;;7.68;75.33;96304.41;5020399;28;20230;-82
2021/01/30 02:34:09;;;;;;;0.87;0.60;;;;;;;7.61;75.93;96310.00;5026214;28;20717;-83
2021/01/30 02:36:41;;;;;;;1.27;0.80;;;;;;;7.86;75.63;96310.28;5001457;28;20238;-82
2021/01/30 02:39:13;;;;;;;1.07;0.80;;;;;;;7.86;76.16;96294.72;5025313;28;20276;-82
2021/01/30 02:41:42;;;;;;;1.60;0.90;;;;;;;7.94;75.62;96296.03;5022950;28;20249;-82
2021/01/30 02:44:12;;;;;;;2.00;0.60;;;;;;;7.89;75.56;96302.34;5026147;28;20226;-82
2021/01/30 02:46:40;;;;;;;1.57;0.50;;;;;;;7.92;76.52;96303.91;5020138;28;20246;-81
2021/01/30 02:49:10;;;;;;;0.50;0.37;;;;;;;7.76;75.73;96301.38;5025724;28;20493;-82
2021/01/30 02:51:41;;;;;;;1.23;0.60;;;;;;;7.95;75.75;96300.31;5022114;28;20627;-82
2021/01/30 02:54:09;;;;;;;2.93;0.70;;;;;;;7.88;75.61;96299.81;5025468;28;20215;-83
2021/01/30 02:56:35;;;;;;;2.93;0.60;;;;;;;7.88;75.83;96298.09;5022777;28;20245;-83
2021/01/30 02:59:05;;;;;;;1.73;0.70;;;;;;;7.77;75.23;96295.22;5023364;28;20682;-82
2021/01/30 03:01:34;;;;;;;1.67;0.80;;;;;;;7.81;75.82;96304.53;5018911;28;20246;-82
2021/01/30 03:04:03;;;;;;;0.90;0.70;;;;;;;7.76;75.77;96303.97;5023970;28;20222;-82
2021/01/30 03:06:32;;;;;;;3.13;0.40;;;;;;;7.77;75.18;96297.84;5023786;28;20242;-83
2021/01/30 03:09:04;;;;;;;0.90;0.70;;;;;;;7.82;74.95;96295.81;5024337;28;20622;-82
2021/01/30 03:11:35;;;;;;;2.90;0.80;;;;;;;7.83;75.62;96292.31;5023135;28;20448;-83
2021/01/30 03:14:05;;;;;;;1.10;0.80;;;;;;;7.98;74.74;96289.75;5023950;28;20223;-81
2021/01/30 03:16:36;;;;;;;2.30;0.70;;;;;;;7.84;75.36;96288.78;5019100;28;20723;-81
2021/01/30 03:19:08;;;;;;;2.63;1.03;;;;;;;7.83;75.43;96301.84;5023549;28;20231;-82
2021/01/30 03:21:35;;;;;;;3.77;0.70;;;;;;;7.86;75.61;96304.25;5021220;28;20301;-81
2021/01/30 03:24:04;;;;;;;1.45;0.60;;;;;;;7.87;75.73;96303.34;5022020;28;20217;-81
2021/01/30 03:26:32;;;;;;;2.30;0.60;;;;;;;7.69;75.51;96305.22;5018083;28;20242;-83
2021/01/30 03:28:58;;;;;;;0.83;0.70;;;;;;;7.87;75.60;96305.94;5020277;28;20910;-83
2021/01/30 03:31:25;;;;;;;1.23;0.87;;;;;;;7.75;75.19;96306.63;5023593;28;20245;-82
2021/01/30 03:33:51;;;;;;;1.37;0.70;;;;;;;7.80;75.52;96307.22;5021920;28;20222;-82
2021/01/30 03:36:18;;;;;;;3.70;1.00;;;;;;;7.88;75.22;96313.66;5015853;28;20700;-82
2021/01/30 03:38:44;;;;;;;1.53;0.83;;;;;;;7.77;75.31;96318.59;5020699;28;20225;-81
2021/01/30 03:41:11;;;;;;;1.63;0.83;;;;;;;7.80;75.45;96309.81;5021633;28;20246;-83
2021/01/30 03:43:38;;;;;;;2.00;0.97;;;;;;;7.81;75.00;96311.47;5024876;28;20211;-82
2021/01/30 03:46:04;;;;;;;1.83;1.10;;;;;;;7.64;75.61;96318.44;5022680;28;20269;-83
2021/01/30 03:48:30;;;;;;;0.80;0.80;;;;;;;7.61;75.17;96330.75;5020819;28;20220;-84
2021/01/30 03:50:57;;;;;;;1.20;0.70;;;;;;;7.73;75.10;96327.47;5021199;28;20239;-83
2021/01/30 03:53:23;;;;;;;2.10;0.80;;;;;;;7.71;75.56;96334.53;5021826;28;20758;-81
2021/01/30 03:55:49;;;;;;;1.40;0.70;;;;;;;7.60;75.36;96326.50;5021339;28;20251;-83
2021/01/30 03:58:16;;;;;;;2.10;1.10;;;;;;;7.70;75.57;96332.84;5022127;28;20222;-82
2021/01/30 04:00:42;;;;;;;2.00;0.70;;;;;;;7.78;75.40;96333.25;5022855;28;20292;-83
2021/01/30 04:03:08;;;;;;;2.63;1.07;;;;;;;7.77;74.72;96323.78;5022903;28;20351;-82
2021/01/30 04:05:35;;;;;;;1.43;0.93;;;;;;;7.75;75.25;96330.81;5021453;28;20239;-83
2021/01/30 04:08:01;;;;;;;1.40;0.80;;;;;;;7.78;75.44;96338.44;5020081;28;20497;-82
2021/01/30 04:10:29;;;;;;;2.40;1.00;;;;;;;7.63;75.44;96334.94;5016607;28;20237;-81
2021/01/30 04:12:56;;;;;;;2.80;1.10;;;;;;;7.49;75.85;96335.72;5020952;28;20230;-82
2021/01/30 04:15:26;;;;;;;3.03;1.40;;;;;;;7.52;76.47;96335.53;5022982;28;20288;-81
2021/01/30 04:17:53;;;;;;;1.50;1.10;;;;;;;7.48;76.04;96343.56;5023900;28;20797;-82
2021/01/30 04:20:19;;;;;;;2.10;1.03;;;;;;;7.43;76.06;96336.06;5017691;28;20261;-82
2021/01/30 04:22:46;;;;;;;2.43;1.10;;;;;;;7.63;75.96;96339.31;5022164;28;20250;-82
2021/01/30 04:25:13;;;;;;;5.03;1.30;;;;;;;7.51;76.83;96339.06;5022121;28;20241;-82
2021/01/30 04:27:39;;;;;;;1.53;0.90;;;;;;;7.56;76.33;96333.63;5022511;28;20274;-82
2021/01/30 04:30:06;;;;;;;3.43;1.27;;;;;;;7.40;77.05;96318.06;5022735;28;20216;-81
2021/01/30 04:32:33;;;;;;;2.10;1.00;;;;;;;7.44;76.95;96327.34;5022615;28;20333;-81
2021/01/30 04:34:59;;;;;;;2.93;0.80;;;;;;;7.51;77.28;96320.88;5017725;28;20241;-82
2021/01/30 04:37:26;;;;;;;2.87;0.63;;;;;;;7.40;77.72;96320.66;5021165;28;20617;-82
2021/01/30 04:39:52;;;;;;;0.57;0.57;;;;;;;7.19;78.81;96332.22;5025294;28;20735;-82
2021/01/30 04:42:21;;;;;;;2.50;1.13;;;;;;;7.43;77.68;96333.47;5023276;28;20740;-82
2021/01/30 04:44:50;;;;;;;1.10;1.00;;;;;;;7.43;78.30;96337.81;5026828;28;20600;-82
2021/01/30 04:47:36;;;;;;;2.70;0.97;;;;;;;7.13;78.33;96334.22;5025813;28;20304;-81
2021/01/30 04:50:06;;;;;;;1.93;1.20;;;;;;;7.24;78.85;96330.19;5026650;28;20796;-81
2021/01/30 04:52:40;;;;;;;1.63;1.10;;;;;;;7.30;77.86;96335.06;5026389;28;20214;-82
2021/01/30 04:55:17;;;;;;;1.10;0.90;;;;;;;7.24;78.83;96335.38;5026822;28;20244;-83
2021/01/30 04:57:52;;;;;;;1.27;1.00;;;;;;;7.40;77.97;96325.00;5027327;28;20217;-82
2021/01/30 05:00:31;;;;;;;2.00;0.90;;;;;;;7.43;78.07;96338.66;5027079;28;20233;-81
2021/01/30 05:03:14;;;;;;;3.17;1.13;;;;;;;7.53;77.27;96315.63;5027250;28;20234;-82
2021/01/30 05:05:42;;;;;;;3.07;1.07;;;;;;;7.52;77.50;96322.56;5025100;28;20249;-82
2021/01/30 05:08:13;;;;;;;1.67;0.90;;;;;;;7.32;78.63;96322.84;5026414;28;20216;-82
2021/01/30 05:10:42;;;;;;;1.67;1.27;;;;;;;7.31;78.48;96323.75;5026729;28;20238;-81
2021/01/30 05:13:11;;;;;;;0.90;0.87;;;;;;;7.33;78.07;96314.97;5027389;28;20222;-83
2021/01/30 05:15:40;;;;;;;2.00;0.90;;;;;;;7.55;77.60;96320.72;5024503;28;21094;-81
2021/01/30 05:18:13;;;;;;;3.13;1.30;;;;;;;7.55;77.48;96299.97;5026060;28;20222;-83
2021/01/30 05:20:44;;;;;;;5.27;1.00;;;;;;;7.55;77.46;96312.94;5028553;28;20234;-81
2021/01/30 05:23:12;;;;;;;1.10;1.00;;;;;;;7.51;77.73;96297.53;5028219;28;20717;-82
2021/01/30 05:25:38;;;;;;;1.33;1.23;;;;;;;7.57;77.77;96313.69;5027803;28;20265;-81
2021/01/30 05:28:24;;;;;;;2.20;1.30;;;;;;;7.61;77.98;96304.81;5024091;28;20218;-82
2021/01/30 05:31:08;;;;;;;1.93;1.00;;;;;;;7.49;78.11;96304.56;5025324;28;20243;-82
2021/01/30 05:33:46;;;;;;;1.70;0.97;;;;;;;7.44;78.02;96301.41;5026669;28;20919;-82
2021/01/30 05:36:15;;;;;;;1.77;1.33;;;;;;;7.49;77.97;96304.56;5026107;28;21033;-82
2021/01/30 05:38:52;;;;;;;2.60;1.50;;;;;;;7.49;77.98;96298.56;5024628;28;20227;-83
2021/01/30 05:41:29;;;;;;;1.53;1.23;;;;;;;7.45;78.25;96287.53;5024278;28;20881;-81
2021/01/30 05:44:01;;;;;;;2.50;1.57;;;;;;;7.41;78.07;96300.75;5025895;28;20670;-82
2021/01/30 05:46:29;;;;;;;1.40;1.30;;;;;;;7.31;79.51;96295.22;5019309;28;20241;-83
2021/01/30 05:48:57;;;;;;;4.30;1.80;;;;;;;7.65;77.89;96309.75;5024667;28;20229;-81
2021/01/30 05:51:28;;;;;;;1.73;1.27;;;;;;;7.60;77.67;96295.38;5024263;28;20233;-81
2021/01/30 05:53:55;;;;;;;2.57;1.40;;;;;;;7.63;77.82;96292.63;5026083;28;20223;-83
2021/01/30 05:56:21;;;;;;;2.40;1.10;;;;;;;7.56;78.41;96289.53;5024405;28;20231;-83
2021/01/30 05:58:47;;;;;;;2.30;1.67;;;;;;;7.70;77.56;96296.50;5023813;28;20215;-82
2021/01/30 06:01:26;;;;;;;1.53;1.43;;;;;;;7.30;78.23;96299.59;5023188;28;20242;-83
2021/01/30 06:03:58;;;;;;;2.17;0.87;;;;;;;7.56;77.94;96293.88;5024412;28;20241;-82
2021/01/30 06:06:26;;;;;;;1.90;1.17;;;;;;;7.71;77.68;96293.00;5026646;28;20244;-82
2021/01/30 06:08:58;;;;;;;2.03;1.00;;;;;;;7.58;77.77;96297.22;5027451;28;20210;-84
2021/01/30 06:11:24;;;;;;;1.70;1.00;;;;;;;7.52;78.48;96294.03;5029511;28;20234;-84
2021/01/30 06:13:52;;;;;;;0.97;0.97;;;;;;;7.35;79.74;96299.31;5026461;28;20229;-83
2021/01/30 06:16:37;;;;;;;2.30;1.30;;;;;;;7.12;81.38;96293.66;5026577;28;20249;-83
2021/01/30 06:19:13;;;;;;;1.10;0.80;;;;;;;7.22;81.91;96300.91;5027521;28;20233;-83
2021/01/30 06:21:39;;;;;;;0.23;0.23;;;;;;;7.19;82.19;96294.16;5026551;28;20245;-82
2021/01/30 06:24:07;;;;;;;0.20;0.13;;;;;;;6.82;85.55;96303.06;5026202;28;20218;-83
2021/01/30 06:26:37;;;;;;;1.00;0.23;;;;;;;7.21;82.21;96289.72;5024339;28;20751;-83
2021/01/30 06:29:05;;;;;;;0.93;0.23;;;;;;;7.19;83.20;96295.91;5027621;28;20227;-84
2021/01/30 06:31:39;;;;;;;1.87;0.43;;;;;;;7.10;84.18;96298.06;5025226;28;21298;-83
2021/01/30 06:34:18;;;;;;;2.53;0.47;;;;;;;7.25;82.80;96290.38;5028462;28;20224;-83
2021/01/30 06:36:48;;;;;;;2.30;0.77;;;;;;;7.31;82.88;96297.81;5024924;28;21084;-82
2021/01/30 06:39:15;;;;;;;1.60;0.33;;;;;;;7.35;82.96;96307.09;5026236;28;20215;-83
2021/01/30 06:41:42;;;;;;;0.40;0.30;;;;;;;7.34;83.43;96300.25;5023359;28;20246;-83
2021/01/30 06:44:15;;;;;;;0.93;0.37;;;;;;;7.21;84.50;96299.25;5019315;28;20214;-84
2021/01/30 06:47:09;;;;;;;1.30;0.53;;;;;;;7.23;83.78;96307.78;5024667;28;20743;-83
2021/01/30 06:49:38;;;;;;;3.13;0.80;;;;;;;7.15;85.48;96303.03;5027820;28;20225;-82
2021/01/30 06:52:07;;;;;;;0.97;0.43;;;;;;;7.26;84.22;96302.41;5025642;28;20246;-83
2021/01/30 06:54:33;;;;;;;1.23;0.50;;;;;;;7.12;85.71;96298.81;5025811;28;20226;-83
2021/01/30 06:57:05;;;;;;;2.10;0.57;;;;;;;7.21;85.02;96301.84;5023642;28;20710;-84
2021/01/30 06:59:34;;;;;;;1.60;0.70;;;;;;;7.26;84.36;96297.22;5022392;28;20226;-83
2021/01/30 07:02:01;;;;;;;0.80;0.37;;;;;;;7.18;85.52;96296.81;5024912;28;20903;-82
2021/01/30 07:05:01;;;;;;;1.97;0.60;;;;;;;6.97;88.46;96296.25;5025987;28;20225;-82
2021/01/30 07:07:28;;;;;;;1.57;0.90;;;;;;;7.07;87.34;96292.22;5023154;28;20626;-83
2021/01/30 07:10:14;;;;;;;1.47;0.67;;;;;;;7.07;87.57;96293.06;5024745;28;20218;-84
2021/01/30 07:12:48;;;;;;;2.63;0.50;;;;;;;7.08;87.25;96299.91;5028474;28;20234;-85
2021/01/30 07:15:20;;;;;;;1.43;0.50;;;;;;;6.91;88.24;96293.06;5026110;28;20238;-82
2021/01/30 07:17:59;;;;;;;2.20;0.60;;;;;;;7.08;86.87;96292.16;5026426;28;20272;-82
2021/01/30 07:20:33;;;;;;;0.90;0.40;;;;;;;7.07;87.36;96293.06;5025937;28;20242;-81
2021/01/30 07:23:04;;;;;;;2.23;0.40;;;;;;;7.07;87.41;96298.22;5025828;28;20345;-82
2021/01/30 07:25:36;;;;;;;1.10;0.50;;;;;;;6.86;89.61;96300.25;5025043;28;20518;-82
2021/01/30 07:28:05;;;;;;;0.80;0.30;;;;;;;6.86;89.01;96305.41;5026481;28;20605;-83
2021/01/30 07:30:37;;;;;;;0.80;0.40;;;;;;;6.97;88.60;96306.63;5026109;28;20241;-82
2021/01/30 07:33:08;;;;;;;0.93;0.37;;;;;;;6.99;88.25;96303.00;5026211;28;20225;-83
2021/01/30 07:35:39;;;;;;;1.50;0.40;;;;;;;7.07;88.08;96298.22;5026831;28;20250;-83
2021/01/30 07:38:15;;;;;;;1.60;0.60;;;;;;;7.08;88.52;96299.09;5027008;28;20218;-81
2021/01/30 07:40:44;;;;;;;0.77;0.40;;;;;;;7.04;87.82;96288.06;5027086;28;20246;-82
2021/01/30 07:43:14;;;;;;;1.33;0.50;;;;;;;7.06;87.48;96296.56;5027782;28;20702;-83
2021/01/30 07:45:45;;;;;;;1.67;0.50;;;;;;;6.87;89.84;96285.50;5024110;28;20246;-82
2021/01/30 07:48:14;;;;;;;1.30;0.50;;;;;;;6.98;88.24;96293.53;5027545;28;20218;-83
2021/01/30 07:50:44;;;;;;;1.20;0.30;;;;;;;6.77;89.73;96294.72;5027240;28;20245;-82
2021/01/30 07:53:13;;;;;;;1.20;0.40;;;;;;;6.89;89.20;96289.72;5027243;28;20763;-81
2021/01/30 07:55:52;;;;;;;2.47;0.40;;;;;;;7.01;88.40;96287.38;5026503;28;20272;-84
2021/01/30 07:58:36;;;;;;;1.00;0.37;;;;;;;7.12;87.12;96275.50;5027266;28;20222;-84
2021/01/30 08:01:24;;;;;;;1.07;0.37;;;;;;;6.94;88.75;96277.31;5025361;28;20238;-82
2021/01/30 08:04:03;;;;;;;0.60;0.30;;;;;;;6.97;88.70;96270.31;5023673;28;21081;-82
2021/01/30 08:06:52;;;;;;;0.47;0.30;;;;;;;6.75;90.16;96272.31;5020352;28;20245;-82
2021/01/30 08:09:26;;;;;;;0.70;0.30;;;;;;;6.80;89.76;96266.88;5026659;28;20225;-81
2021/01/30 08:12:00;;;;;;;1.47;0.40;;;;;;;7.00;87.97;96268.38;5026665;28;20343;-84
2021/01/30 08:14:41;;;;;;;0.40;0.30;;;;;;;6.94;88.29;96266.97;5029512;28;20221;-78
2021/01/30 08:17:20;;;;;;;1.20;0.20;;;;;;;7.03;87.95;96265.63;5023990;28;20234;-78
2021/01/30 08:19:51;;;;;;;0.77;0.30;;;;;;;6.85;89.26;96251.06;5024907;28;20221;-78
2021/01/30 08:22:20;;;;;;;0.43;0.30;;;;;;;6.81;89.54;96255.59;5025596;28;20241;-77
2021/01/30 08:24:51;;;;;;;1.00;0.60;;;;;;;6.94;88.69;96253.16;5027110;28;20210;-80
2021/01/30 08:27:23;;;;;;;1.63;0.33;;;;;;;7.06;88.02;96239.53;5028702;28;20245;-79
2021/01/30 08:29:53;;;;;;;0.70;0.40;;;;;;;7.10;87.94;96246.22;5029202;28;20727;-78
2021/01/30 08:32:36;;;;;;;1.80;0.20;;;;;;;7.17;86.88;96251.94;5027354;28;20234;-82
2021/01/30 08:35:43;;;;;;;1.13;0.60;;;;;;;7.16;86.69;96249.41;5026339;28;20226;-84
2021/01/30 08:38:12;;;;;;;0.87;0.40;;;;;;;6.96;88.70;96246.16;5019737;28;20238;-82
2021/01/30 08:40:52;;;;;;;0.87;0.57;;;;;;;7.00;88.44;96252.81;5026933;28;20231;-89
2021/01/30 08:43:23;;;;;;;3.30;2.30;;;;;;;7.08;88.51;96249.84;5030046;28;20230;-81
2021/01/30 08:45:50;;;;;;;3.20;1.17;;;;;;;7.17;87.24;96258.84;5027775;28;20253;-83
2021/01/30 08:48:28;;;;;;;3.27;1.00;;;;;;;7.14;87.63;96255.50;5029905;28;20218;-82
2021/01/30 08:50:56;;;;;;;2.57;0.60;;;;;;;7.09;88.25;96259.28;5030319;28;20329;-85
2021/01/30 08:53:31;;;;;;;2.37;0.93;;;;;;;7.17;87.63;96254.50;5029679;28;20680;-84
2021/01/30 08:55:59;;;;;;;2.87;0.60;;;;;;;7.19;88.14;96251.84;5027748;28;20329;-85
2021/01/30 08:58:47;;;;;;;2.23;0.60;;;;;;;6.99;88.71;96261.53;5030294;28;20214;-84
2021/01/30 09:01:47;;;;;;;5.17;1.10;;;;;;;6.98;88.33;96257.25;5028424;28;20749;-85
2021/01/30 09:04:47;;;;;;;4.90;2.13;;;;;;;7.05;87.79;96256.00;4997482;28;20214;-85
2021/01/30 09:07:39;;;;;;;6.03;1.10;;;;;;;7.04;87.71;96256.94;5024001;28;20312;-85
2021/01/30 09:10:38;;;;;;;4.40;1.37;;;;;;;7.18;87.42;96252.75;5028136;28;20264;-85
2021/01/30 09:13:08;;;;;;;6.00;1.37;;;;;;;7.16;87.75;96252.84;5024708;28;20215;-85
2021/01/30 09:15:58;;;;;;;1.53;0.67;;;;;;;7.07;87.35;96259.34;5027756;28;20231;-85
2021/01/30 09:19:01;;;;;;;6.53;1.30;;;;;;;7.21;86.81;96250.81;5030138;28;20233;-84
2021/01/30 09:21:53;;;;;;;4.47;1.50;;;;;;;6.93;87.18;96262.72;5029011;28;20287;-80
2021/01/30 09:24:49;;;;;;;5.93;1.60;;;;;;;7.18;86.17;96263.94;5025700;28;20226;-84
2021/01/30 09:27:21;;;;;;;4.47;1.30;;;;;;;7.21;86.17;96268.16;5028534;28;20234;-85
2021/01/30 09:29:49;;;;;;;5.07;1.10;;;;;;;7.05;86.25;96274.16;5025601;28;20253;-82
2021/01/30 09:32:22;;;;;;;2.80;0.70;;;;;;;6.87;88.64;96277.75;5028603;28;20239;-83
2021/01/30 09:34:50;;;;;;;1.57;0.30;;;;;;;6.40;87.47;96299.22;5028817;28;20687;-82
2021/01/30 09:37:36;;;;;;;1.90;0.57;;;;;;;6.25;88.74;96314.63;5028335;28;20243;-81
2021/01/30 09:40:05;;;;;;;1.07;0.20;;;;;;;5.93;88.93;96311.84;5027031;28;20684;-84
2021/01/30 09:42:32;;;;;;;1.07;0.17;;;;;;;5.64;89.94;96327.97;5027817;28;20237;-81
2021/01/30 09:45:13;;;;;;;2.30;0.33;;;;;;;5.87;88.12;96325.09;5027028;28;20250;-84
2021/01/30 09:47:44;;;;;;;1.03;0.40;;;;;;;6.04;87.36;96332.06;5031276;28;20242;-82
2021/01/30 09:50:13;;;;;;;0.47;0.20;;;;;;;5.93;87.75;96340.31;5028424;28;20591;-81
2021/01/30 09:52:46;;;;;;;0.87;0.40;;;;;;;5.94;87.64;96339.41;5027817;28;20219;-83
2021/01/30 09:55:13;;;;;;;0.77;0.30;;;;;;;6.08;86.66;96343.09;5027542;28;20234;-83
2021/01/30 09:57:42;;;;;;;0.37;0.20;;;;;;;6.20;85.94;96345.09;5025606;28;20203;-83
2021/01/30 10:00:13;;;;;;;0.13;0.10;;;;;;;6.24;85.19;96353.53;5023532;28;20222;-83
2021/01/30 10:02:40;;;;;;;0.50;0.20;;;;;;;6.29;85.00;96354.97;5027825;28;20246;-80
2021/01/30 10:05:09;;;;;;;0.30;0.30;;;;;;;6.33;84.54;96356.50;5027406;28;20242;-85
2021/01/30 10:07:36;;;;;;;0.30;0.20;;;;;;;6.38;83.99;96356.28;5027498;28;20251;-87
2021/01/30 10:10:20;;;;;;;0.93;0.27;;;;;;;6.41;82.91;96350.09;5026265;28;20215;-79
2021/01/30 10:12:47;;;;;;;0.63;0.10;;;;;;;6.40;83.07;96361.38;5028229;28;20218;-81
2021/01/30 10:15:14;;;;;;;0.50;0.10;;;;;;;6.29;81.81;96361.91;5025666;28;20253;-82
2021/01/30 10:17:42;;;;;;;0.70;0.20;;;;;;;6.24;82.10;96354.38;5024467;28;20308;-86
2021/01/30 10:20:11;;;;;;;0.10;0.10;;;;;;;6.19;82.17;96361.50;5022473;28;20272;-82
2021/01/30 10:22:39;;;;;;;0.33;0.10;;;;;;;6.15;81.51;96362.59;5024216;28;20234;-84
2021/01/30 10:25:10;;;;;;;1.17;0.30;;;;;;;6.05;81.15;96358.78;5027767;28;20315;-85
2021/01/30 10:27:36;;;;;;;0.33;0.20;;;;;;;6.02;81.07;96361.53;5027795;28;20619;-82
2021/01/30 10:30:05;;;;;;;0.37;0.10;;;;;;;5.94;81.47;96367.06;5025566;28;20280;-82
2021/01/30 10:32:41;;;;;;;0.70;0.10;;;;;;;5.84;80.17;96361.47;5029820;28;20234;-82
2021/01/30 10:35:11;;;;;;;0.30;0.20;;;;;;;5.92;80.95;96364.53;5025458;28;20233;-82
2021/01/30 10:37:41;;;;;;;0.20;0.20;;;;;;;5.95;80.68;96356.63;5029400;28;20224;-80
2021/01/30 10:40:10;;;;;;;0.30;0.20;;;;;;;5.99;81.04;96365.09;5026605;28;20602;-81
2021/01/30 10:42:38;;;;;;;1.03;0.20;;;;;;;6.07;81.31;96362.97;5025816;28;20280;-83
2021/01/30 10:45:14;;;;;;;0.30;0.10;;;;;;;6.18;81.14;96362.44;5026765;28;20285;-82
2021/01/30 10:47:41;;;;;;;0.70;0.30;;;;;;;6.30;81.20;96367.00;5027132;28;20717;-83
2021/01/30 10:50:09;;;;;;;0.50;0.27;;;;;;;6.40;81.30;96369.16;5024555;28;20221;-81
2021/01/30 10:52:36;;;;;;;0.30;0.20;;;;;;;6.44;81.05;96371.50;5023393;28;20218;-82
2021/01/30 10:55:30;;;;;;;0.60;0.30;;;;;;;6.48;80.71;96372.19;5025508;28;20242;-81
2021/01/30 10:58:12;;;;;;;0.67;0.33;;;;;;;6.39;80.23;96368.28;5012143;28;20281;-84
2021/01/30 11:00:39;;;;;;;1.50;0.40;;;;;;;6.41;80.44;96376.81;5020284;28;20241;-84
2021/01/30 11:03:20;;;;;;;0.93;0.37;;;;;;;6.43;79.98;96366.38;5025436;28;20311;-85
2021/01/30 11:05:46;;;;;;;0.33;0.20;;;;;;;6.49;80.13;96376.47;5021577;28;20620;-83
2021/01/30 11:08:24;;;;;;;0.30;0.20;;;;;;;6.46;79.25;96374.00;5025242;28;20226;-84
2021/01/30 11:10:50;;;;;;;0.53;0.30;;;;;;;6.48;79.86;96364.41;5025488;28;20246;-83
2021/01/30 11:13:25;;;;;;;0.77;0.30;;;;;;;6.42;79.15;96362.13;5025396;28;20755;-83
2021/01/30 11:15:51;;;;;;;0.23;0.20;;;;;;;6.35;79.49;96364.19;5025295;28;20256;-78
2021/01/30 11:18:31;;;;;;;0.43;0.40;;;;;;;6.30;79.06;96369.59;5026552;28;20230;-83
2021/01/30 11:20:58;;;;;;;0.70;0.43;;;;;;;6.28;79.01;96366.22;5025208;28;20243;-81
2021/01/30 11:23:38;;;;;;;1.07;0.40;;;;;;;6.25;79.13;96368.13;5026624;28;20267;-87
2021/01/30 11:26:16;;;;;;;0.70;0.50;;;;;;;6.26;79.40;96370.66;5024515;28;20234;-86
2021/01/30 11:28:43;;;;;;;0.70;0.57;;;;;;;6.25;79.02;96369.00;5027300;28;20232;-83
2021/01/30 11:31:10;;;;;;;0.57;0.40;;;;;;;6.15;78.90;96362.59;5023351;28;20249;-84
2021/01/30 11:33:37;;;;;;;0.50;0.47;;;;;;;6.03;79.01;96369.22;5026494;28;20218;-81
2021/01/30 11:36:05;;;;;;;0.80;0.60;;;;;;;6.03;79.52;96360.59;5023946;28;20292;-84
2021/01/30 11:38:31;;;;;;;0.73;0.40;;;;;;;5.96;79.16;96368.66;5026593;28;20218;-83
2021/01/30 11:40:59;;;;;;;1.00;0.70;;;;;;;5.90;79.11;96366.34;5023778;28;20242;-82
2021/01/30 11:43:26;;;;;;;1.73;0.90;;;;;;;5.84;78.94;96366.63;5027209;28;20238;-84
2021/01/30 11:45:53;;;;;;;1.07;0.70;;;;;;;5.73;78.96;96368.91;5025254;28;20297;-82
2021/01/30 11:48:21;;;;;;;0.83;0.73;;;;;;;5.70;79.39;96379.41;5031567;28;20226;-83
2021/01/30 11:50:49;;;;;;;1.70;0.80;;;;;;;5.67;79.18;96380.38;5027296;28;20249;-82
2021/01/30 11:53:18;;;;;;;1.50;0.70;;;;;;;5.59;78.41;96380.75;5031321;28;20300;-82
2021/01/30 11:55:44;;;;;;;1.20;1.10;;;;;;;5.59;78.64;96383.34;5028739;28;20257;-84
2021/01/30 11:58:12;;;;;;;1.33;1.03;;;;;;;5.56;78.20;96393.81;5030596;28;20323;-83
2021/01/30 12:00:38;;;;;;;2.77;1.00;;;;;;;5.59;78.58;96383.34;5030839;28;20245;-82
2021/01/30 12:03:05;;;;;;;1.40;0.90;;;;;;;5.63;78.39;96385.78;5028571;28;20253;-83